Baroda, Michigan
Current Conditions -  °F | °C
As of 11:53 PM on Monday 20 Oct 2014 (Local Time) from KBEH Reporting Station
Overcast Overcast  
Wind Chill: 50°   Ceiling: 6000
Heat Index: 50°   Visibility: 10mi
Dew Point: 44°   Wind: 3mph
Humidity: 80%   Direction: NA
Pressure: 29.97"   Gusts: NA
Location:  41.96°N, 86.49°W
Report Text: KBEH 210353Z AUTO VRB03KT 10SM FEW021 OVC060 10/07 A2997 RMK AO2 RAE0258 SLP148 P0000 T01000067
Loading
Personal Weather Stations






























Interactive Weather Map
Tropical Storm Tracking
New forecast layout! Learn more

10-Day Weather Forecast

Advertisements
Track Severe Weather on mobile